createdAt,value
2022-10-04T00:01:13.932Z,99.01
2022-10-04T00:03:51.222Z,98.92
2022-10-04T00:06:24.247Z,98.86
2022-10-04T00:09:04.625Z,98.37
2022-10-04T00:11:37.312Z,98.37
2022-10-04T00:14:16.501Z,98.03
2022-10-04T00:16:44.294Z,97.83
2022-10-04T00:19:14.664Z,97.59
2022-10-04T00:21:54.436Z,97.32
2022-10-04T00:25:02.886Z,97.28
2022-10-04T00:27:30.509Z,97.26
2022-10-04T00:30:04.342Z,96.94
2022-10-04T00:32:41.806Z,96.79
2022-10-04T00:35:27.639Z,96.80
2022-10-04T00:38:08.967Z,96.77
2022-10-04T00:41:05.818Z,96.71
2022-10-04T00:43:40.665Z,96.98
2022-10-04T00:46:14.178Z,96.76
2022-10-04T00:48:53.079Z,96.84
2022-10-04T00:51:31.585Z,96.67
2022-10-04T00:54:20.340Z,96.54
2022-10-04T00:56:57.893Z,96.51
2022-10-04T00:59:37.679Z,96.48
2022-10-04T01:02:28.252Z,96.50
2022-10-04T01:05:01.948Z,96.49
2022-10-04T01:07:40.551Z,96.25
2022-10-04T01:10:25.135Z,96.32
2022-10-04T01:13:01.190Z,96.26
2022-10-04T01:15:55.279Z,96.28
2022-10-04T01:18:22.757Z,96.45
2022-10-04T01:21:03.147Z,96.25
2022-10-04T01:23:47.925Z,96.13
2022-10-04T01:26:30.328Z,96.61
2022-10-04T01:29:15.209Z,96.52
2022-10-04T01:31:48.774Z,96.74
2022-10-04T01:34:22.399Z,96.75
2022-10-04T01:36:54.357Z,96.71
2022-10-04T01:39:24.324Z,96.63
2022-10-04T01:42:07.295Z,96.47
2022-10-04T01:44:55.513Z,96.28
2022-10-04T01:47:42.754Z,96.45
2022-10-04T01:50:28.207Z,96.33
2022-10-04T01:53:02.232Z,96.37
2022-10-04T01:55:34.358Z,96.21
2022-10-04T01:58:11.719Z,96.16
2022-10-04T02:00:46.960Z,95.88
2022-10-04T02:03:30.994Z,95.74
2022-10-04T02:06:02.939Z,95.80
2022-10-04T02:08:38.146Z,95.50
2022-10-04T02:11:07.166Z,95.43
2022-10-04T02:13:40.150Z,95.06
2022-10-04T02:16:12.174Z,95.01
2022-10-04T02:18:44.216Z,94.83
2022-10-04T02:21:13.415Z,95.06
2022-10-04T02:23:42.321Z,95.10
2022-10-04T02:26:11.438Z,94.83
2022-10-04T02:28:41.136Z,94.78
2022-10-04T02:31:29.290Z,94.52
2022-10-04T02:33:59.292Z,94.52
2022-10-04T02:36:29.668Z,94.38
2022-10-04T02:39:34.946Z,93.96
2022-10-04T02:42:29.606Z,94.22
2022-10-04T02:45:05.303Z,94.49
2022-10-04T02:47:45.742Z,94.15
2022-10-04T02:50:24.403Z,93.89
2022-10-04T02:53:12.279Z,93.98
2022-10-04T02:55:41.607Z,94.18
2022-10-04T02:58:14.478Z,94.55
2022-10-04T03:00:49.353Z,94.37
2022-10-04T03:03:34.708Z,94.64
2022-10-04T03:06:09.433Z,94.96
2022-10-04T03:08:59.492Z,95.12
2022-10-04T03:11:31.883Z,95.64
2022-10-04T03:14:01.747Z,95.77
2022-10-04T03:16:36.463Z,96.06
2022-10-04T03:19:06.117Z,96.39
2022-10-04T03:21:35.660Z,96.65
2022-10-04T03:24:06.306Z,96.62
2022-10-04T03:26:38.661Z,96.75
2022-10-04T03:29:10.299Z,96.94
2022-10-04T03:31:42.459Z,97.25
2022-10-04T03:34:15.862Z,97.23
2022-10-04T03:36:44.211Z,97.20
2022-10-04T03:39:12.519Z,97.23
2022-10-04T03:41:42.399Z,96.81
2022-10-04T03:44:18.829Z,96.77
2022-10-04T03:46:47.703Z,96.72
2022-10-04T03:49:23.731Z,96.94
2022-10-04T03:51:51.315Z,97.19
2022-10-04T03:54:23.650Z,97.14
2022-10-04T03:56:54.776Z,96.95
2022-10-04T03:59:25.499Z,97.13
2022-10-04T04:02:02.319Z,96.83
2022-10-04T04:04:36.741Z,96.88
2022-10-04T04:07:36.922Z,96.63
2022-10-04T04:10:16.976Z,96.79
2022-10-04T04:12:52.920Z,96.72
2022-10-04T04:15:20.650Z,96.74
2022-10-04T04:17:54.810Z,97.31
2022-10-04T04:20:25.145Z,96.64
2022-10-04T04:23:05.677Z,95.42
2022-10-04T04:25:38.429Z,95.17
2022-10-04T04:28:14.021Z,95.25
2022-10-04T04:30:47.852Z,95.63
2022-10-04T04:33:29.860Z,96.14
2022-10-04T04:36:05.396Z,96.32
2022-10-04T04:38:33.203Z,96.53
2022-10-04T04:41:10.579Z,96.78
2022-10-04T04:43:44.329Z,97.31
2022-10-04T04:46:28.337Z,97.13
2022-10-04T04:49:02.558Z,97.63
2022-10-04T04:51:32.502Z,97.41
2022-10-04T04:54:03.784Z,97.51
2022-10-04T04:56:31.735Z,97.03
2022-10-04T04:59:03.406Z,97.23
2022-10-04T05:01:47.110Z,97.46
2022-10-04T05:04:14.521Z,97.31
2022-10-04T05:06:47.833Z,97.40
2022-10-04T05:09:25.369Z,97.76
2022-10-04T05:11:57.380Z,97.75
2022-10-04T05:14:24.867Z,97.78
2022-10-04T05:16:55.734Z,97.25
2022-10-04T05:19:37.037Z,97.04
2022-10-04T05:22:11.935Z,97.17
2022-10-04T05:24:48.686Z,97.06
2022-10-04T05:27:23.827Z,97.58
2022-10-04T05:30:09.315Z,97.53
2022-10-04T05:33:01.854Z,97.15
2022-10-04T05:35:38.749Z,97.26
2022-10-04T05:38:16.605Z,97.44
2022-10-04T05:41:08.696Z,97.06
2022-10-04T05:43:52.419Z,97.12
2022-10-04T05:46:34.301Z,97.57
2022-10-04T05:49:08.802Z,97.53
2022-10-04T05:51:56.470Z,96.80
2022-10-04T05:54:27.179Z,95.93
2022-10-04T05:57:27.437Z,95.77
2022-10-04T06:00:01.807Z,96.32
2022-10-04T06:03:00.833Z,96.51
2022-10-04T06:05:51.794Z,96.76
2022-10-04T06:08:22.070Z,97.20
2022-10-04T06:10:57.515Z,97.63
2022-10-04T06:13:51.360Z,97.69
2022-10-04T06:16:20.211Z,97.99
2022-10-04T06:19:34.264Z,98.28
2022-10-04T06:22:26.880Z,98.29
2022-10-04T06:25:02.679Z,99.02
2022-10-04T06:27:58.016Z,99.53
2022-10-04T06:30:26.302Z,100.00
2022-10-04T06:32:59.844Z,100.00
2022-10-04T06:35:48.335Z,100.00
2022-10-04T06:38:46.203Z,100.00
2022-10-04T06:41:40.240Z,100.00
2022-10-04T06:44:17.247Z,100.00
2022-10-04T06:46:53.016Z,100.00
2022-10-04T06:49:46.314Z,100.00
2022-10-04T06:52:25.957Z,100.00
2022-10-04T06:55:17.148Z,100.00
2022-10-04T06:58:10.744Z,100.00
2022-10-04T07:00:53.085Z,100.00
2022-10-04T07:03:27.716Z,100.00
2022-10-04T07:06:01.271Z,100.00
2022-10-04T07:08:50.005Z,100.00
2022-10-04T07:11:35.106Z,100.00
2022-10-04T07:14:31.019Z,100.00
2022-10-04T07:17:08.787Z,100.00
2022-10-04T07:19:46.217Z,100.00
2022-10-04T07:22:19.817Z,100.00
2022-10-04T07:25:05.996Z,100.00
2022-10-04T07:28:11.293Z,100.00
2022-10-04T07:30:46.409Z,100.00
2022-10-04T07:33:20.257Z,100.00
2022-10-04T07:35:58.839Z,100.00
2022-10-04T07:38:34.391Z,100.00
2022-10-04T07:41:23.345Z,100.00
2022-10-04T07:44:20.742Z,100.00
2022-10-04T07:46:52.898Z,100.00
2022-10-04T07:49:22.389Z,100.00
2022-10-04T07:52:04.234Z,100.00
2022-10-04T07:54:47.435Z,100.00
2022-10-04T07:57:45.060Z,100.00
2022-10-04T08:00:42.046Z,100.00
2022-10-04T08:03:27.687Z,100.00
2022-10-04T08:06:24.414Z,100.00
2022-10-04T08:08:54.568Z,100.00
2022-10-04T08:11:52.655Z,100.00
2022-10-04T08:15:19.166Z,100.00
2022-10-04T08:18:40.358Z,100.00
2022-10-04T08:21:10.641Z,100.00
2022-10-04T08:23:50.070Z,100.00
2022-10-04T08:26:52.330Z,100.00
2022-10-04T08:29:43.463Z,100.00
2022-10-04T08:32:49.577Z,100.00
2022-10-04T08:35:38.374Z,100.00
2022-10-04T08:38:32.369Z,100.00
2022-10-04T08:41:08.494Z,100.00
2022-10-04T08:44:05.761Z,100.00
2022-10-04T08:47:30.947Z,100.00
2022-10-04T08:50:28.005Z,100.00
2022-10-04T08:53:22.689Z,100.00
2022-10-04T08:56:06.474Z,100.00
2022-10-04T08:58:37.021Z,100.00
2022-10-04T09:01:26.768Z,100.00
2022-10-04T09:04:03.689Z,100.00
2022-10-04T09:06:44.690Z,100.00
2022-10-04T09:09:18.450Z,100.00
2022-10-04T09:12:12.470Z,100.00
2022-10-04T09:15:02.481Z,100.00
2022-10-04T09:17:53.089Z,100.00
2022-10-04T09:20:38.742Z,100.00
2022-10-04T09:23:48.380Z,100.00
2022-10-04T09:26:15.724Z,100.00
2022-10-04T09:29:05.205Z,100.00
2022-10-04T09:31:51.011Z,100.00
2022-10-04T09:34:47.140Z,100.00
2022-10-04T09:37:45.912Z,100.00
2022-10-04T09:40:47.824Z,100.00
2022-10-04T09:43:33.810Z,100.00
2022-10-04T09:46:40.085Z,100.00
2022-10-04T09:49:30.612Z,100.00
2022-10-04T09:52:22.592Z,100.00
2022-10-04T09:55:06.688Z,100.00
2022-10-04T09:57:51.144Z,100.00
2022-10-04T10:00:33.438Z,100.00
2022-10-04T10:03:46.262Z,100.00
2022-10-04T10:06:54.883Z,100.00
2022-10-04T10:09:50.670Z,100.00
2022-10-04T10:12:57.301Z,100.00
2022-10-04T10:15:44.898Z,100.00
2022-10-04T10:18:37.416Z,100.00
2022-10-04T10:21:16.833Z,100.00
2022-10-04T10:24:08.352Z,100.00
2022-10-04T10:26:50.206Z,100.00
2022-10-04T10:29:48.591Z,100.00
2022-10-04T10:32:53.980Z,100.00
2022-10-04T10:35:27.622Z,100.00
2022-10-04T10:38:26.186Z,100.00
2022-10-04T10:40:53.636Z,100.00
2022-10-04T10:43:51.272Z,100.00
2022-10-04T10:46:31.367Z,100.00
2022-10-04T10:49:05.871Z,100.00
2022-10-04T10:51:45.421Z,100.00
2022-10-04T10:54:48.597Z,100.00
2022-10-04T10:57:58.450Z,100.00
2022-10-04T11:01:20.987Z,100.00
2022-10-04T11:04:04.684Z,100.00
2022-10-04T11:06:53.961Z,100.00
2022-10-04T11:09:32.934Z,100.00
2022-10-04T11:12:18.965Z,100.00
2022-10-04T11:14:55.712Z,100.00
2022-10-04T11:17:57.572Z,100.00
2022-10-04T11:20:42.400Z,100.00
2022-10-04T11:23:40.761Z,100.00
2022-10-04T11:26:26.793Z,100.00
2022-10-04T11:29:26.594Z,100.00
2022-10-04T11:32:00.005Z,100.00
2022-10-04T11:34:57.996Z,100.00
2022-10-04T11:37:47.455Z,100.00
2022-10-04T11:40:50.065Z,100.00
2022-10-04T11:43:50.224Z,100.00
2022-10-04T11:46:28.522Z,100.00
2022-10-04T11:49:04.886Z,100.00
2022-10-04T11:52:02.596Z,100.00
2022-10-04T11:55:14.143Z,100.00
2022-10-04T11:58:23.173Z,100.00
2022-10-04T12:01:20.942Z,100.00
2022-10-04T12:04:22.183Z,100.00
2022-10-04T12:07:20.744Z,100.00
2022-10-04T12:10:17.174Z,100.00
2022-10-04T12:13:18.611Z,100.00
2022-10-04T12:15:52.097Z,100.00
2022-10-04T12:18:19.801Z,100.00
2022-10-04T12:20:53.237Z,100.00
2022-10-04T12:23:48.445Z,100.00
2022-10-04T12:26:33.163Z,100.00
2022-10-04T12:29:25.032Z,100.00
2022-10-04T12:32:10.827Z,100.00
2022-10-04T12:34:57.725Z,100.00
2022-10-04T12:37:38.062Z,100.00
2022-10-04T12:40:24.609Z,100.00
2022-10-04T12:43:10.149Z,100.00
2022-10-04T12:46:16.127Z,100.00
2022-10-04T12:48:51.845Z,100.00
2022-10-04T12:51:42.563Z,100.00
2022-10-04T12:54:26.361Z,100.00
2022-10-04T12:57:24.065Z,100.00
2022-10-04T13:00:33.407Z,100.00
2022-10-04T13:03:31.158Z,100.00
2022-10-04T13:06:15.488Z,100.00
2022-10-04T13:09:00.543Z,100.00
2022-10-04T13:11:53.541Z,100.00
2022-10-04T13:14:41.525Z,100.00
2022-10-04T13:17:43.013Z,100.00
2022-10-04T13:20:34.591Z,100.00
2022-10-04T13:23:22.517Z,100.00
2022-10-04T13:26:04.169Z,100.00
2022-10-04T13:29:13.559Z,100.00
2022-10-04T13:31:44.580Z,100.00
2022-10-04T13:34:23.102Z,100.00
2022-10-04T13:37:16.187Z,100.00
2022-10-04T13:39:49.616Z,100.00
2022-10-04T13:42:32.787Z,100.00
2022-10-04T13:45:12.331Z,100.00
2022-10-04T13:47:52.896Z,100.00
2022-10-04T13:50:53.559Z,100.00
2022-10-04T13:53:49.617Z,100.00
2022-10-04T13:56:42.050Z,100.00
2022-10-04T13:59:35.121Z,100.00
2022-10-04T14:02:21.401Z,100.00
2022-10-04T14:05:05.745Z,100.00
2022-10-04T14:08:07.570Z,100.00
2022-10-04T14:10:46.557Z,100.00
2022-10-04T14:13:52.024Z,100.00
2022-10-04T14:16:23.517Z,100.00
2022-10-04T14:19:10.510Z,100.00
2022-10-04T14:21:57.411Z,100.00
2022-10-04T14:24:40.629Z,100.00
2022-10-04T14:27:49.836Z,100.00
2022-10-04T14:30:44.735Z,100.00
2022-10-04T14:33:24.768Z,100.00
2022-10-04T14:36:30.735Z,100.00
2022-10-04T14:39:06.327Z,100.00
2022-10-04T14:42:16.370Z,100.00
2022-10-04T14:45:06.502Z,100.00
2022-10-04T14:48:12.685Z,100.00
2022-10-04T14:51:03.693Z,100.00
2022-10-04T14:54:00.421Z,100.00
2022-10-04T14:56:43.822Z,100.00
2022-10-04T14:59:14.469Z,100.00
2022-10-04T15:02:07.410Z,100.00
2022-10-04T15:05:12.813Z,100.00
2022-10-04T15:07:50.031Z,100.00
2022-10-04T15:10:38.424Z,100.00
2022-10-04T15:13:28.865Z,100.00
2022-10-04T15:16:15.809Z,100.00
2022-10-04T15:19:06.034Z,100.00
2022-10-04T15:21:52.308Z,100.00
2022-10-04T15:24:20.415Z,100.00
2022-10-04T15:27:37.866Z,100.00
2022-10-04T15:30:21.983Z,100.00
2022-10-04T15:33:13.582Z,100.00
2022-10-04T15:36:01.916Z,100.00
2022-10-04T15:38:40.283Z,100.00
2022-10-04T15:41:28.460Z,100.00
2022-10-04T15:43:59.471Z,100.00
2022-10-04T15:46:38.739Z,100.00
2022-10-04T15:49:40.357Z,100.00
2022-10-04T15:52:29.395Z,100.00
2022-10-04T15:55:18.184Z,100.00
2022-10-04T15:57:45.664Z,100.00
2022-10-04T16:00:20.900Z,100.00
2022-10-04T16:03:35.924Z,100.00
2022-10-04T16:06:05.662Z,100.00
2022-10-04T16:08:41.744Z,100.00
2022-10-04T16:11:09.131Z,100.00
2022-10-04T16:13:48.699Z,100.00
2022-10-04T16:16:16.145Z,100.00
2022-10-04T16:19:17.747Z,100.00
2022-10-04T16:21:47.925Z,100.00
2022-10-04T16:24:18.564Z,100.00
2022-10-04T16:26:50.746Z,100.00
2022-10-04T16:29:53.975Z,100.00
2022-10-04T16:32:42.557Z,100.00
2022-10-04T16:35:35.084Z,100.00
2022-10-04T16:38:28.904Z,100.00
2022-10-04T16:41:09.415Z,100.00
2022-10-04T16:43:48.864Z,100.00
2022-10-04T16:46:16.202Z,100.00
2022-10-04T16:49:21.984Z,100.00
2022-10-04T16:52:27.444Z,100.00
2022-10-04T16:55:15.934Z,100.00
2022-10-04T16:57:43.470Z,100.00
2022-10-04T17:00:38.460Z,100.00
2022-10-04T17:03:29.130Z,100.00
2022-10-04T17:06:16.566Z,100.00
2022-10-04T17:08:50.047Z,100.00
2022-10-04T17:11:32.653Z,100.00
2022-10-04T17:14:36.470Z,100.00
2022-10-04T17:17:31.754Z,100.00
2022-10-04T17:20:20.973Z,100.00
2022-10-04T17:23:13.447Z,100.00
2022-10-04T17:25:59.343Z,100.00
2022-10-04T17:28:52.740Z,100.00
2022-10-04T17:31:57.604Z,100.00
2022-10-04T17:34:36.199Z,100.00
2022-10-04T17:37:29.366Z,100.00
2022-10-04T17:40:13.127Z,100.00
2022-10-04T17:42:47.433Z,100.00
2022-10-04T17:45:20.954Z,100.00
2022-10-04T17:48:29.304Z,100.00
2022-10-04T17:51:23.414Z,100.00
2022-10-04T17:54:19.469Z,100.00
2022-10-04T17:56:52.524Z,100.00
2022-10-04T17:59:31.019Z,100.00
2022-10-04T18:02:10.683Z,100.00
2022-10-04T18:04:50.548Z,100.00
2022-10-04T18:07:26.095Z,100.00
2022-10-04T18:10:02.273Z,100.00
2022-10-04T18:12:56.474Z,100.00
2022-10-04T18:15:35.796Z,100.00
2022-10-04T18:18:20.085Z,100.00
2022-10-04T18:20:53.733Z,100.00
2022-10-04T18:23:27.370Z,100.00
2022-10-04T18:25:59.044Z,100.00
2022-10-04T18:28:26.896Z,100.00
2022-10-04T18:31:01.974Z,100.00
2022-10-04T18:33:39.991Z,100.00
2022-10-04T18:36:27.693Z,100.00
2022-10-04T18:39:20.285Z,100.00
2022-10-04T18:42:23.560Z,100.00
2022-10-04T18:45:12.711Z,100.00
2022-10-04T18:47:41.336Z,100.00
2022-10-04T18:50:23.030Z,100.00
2022-10-04T18:53:19.631Z,100.00
2022-10-04T18:56:05.607Z,100.00
2022-10-04T18:58:57.030Z,100.00
2022-10-04T19:01:49.271Z,100.00
2022-10-04T19:04:42.796Z,100.00
2022-10-04T19:07:37.573Z,100.00
2022-10-04T19:10:35.945Z,100.00
2022-10-04T19:13:18.506Z,100.00
2022-10-04T19:16:12.724Z,100.00
2022-10-04T19:18:56.251Z,100.00
2022-10-04T19:22:03.788Z,100.00
2022-10-04T19:24:49.782Z,100.00
2022-10-04T19:27:37.482Z,100.00
2022-10-04T19:30:15.540Z,100.00
2022-10-04T19:32:57.383Z,100.00
2022-10-04T19:35:46.200Z,100.00
2022-10-04T19:38:13.613Z,100.00
2022-10-04T19:40:51.547Z,100.00
2022-10-04T19:43:43.614Z,100.00
2022-10-04T19:46:37.810Z,100.00
2022-10-04T19:49:33.640Z,100.00
2022-10-04T19:52:28.223Z,100.00
2022-10-04T19:55:08.722Z,100.00
2022-10-04T19:57:38.824Z,100.00
2022-10-04T20:00:13.510Z,100.00
2022-10-04T20:02:48.494Z,100.00
2022-10-04T20:05:25.997Z,100.00
2022-10-04T20:08:05.388Z,100.00
2022-10-04T20:10:37.223Z,100.00
2022-10-04T20:13:25.584Z,100.00
2022-10-04T20:15:55.566Z,100.00
2022-10-04T20:18:51.988Z,100.00
2022-10-04T20:21:27.378Z,100.00
2022-10-04T20:23:56.668Z,100.00
2022-10-04T20:26:54.780Z,100.00
2022-10-04T20:29:38.158Z,100.00
2022-10-04T20:32:11.137Z,100.00
2022-10-04T20:34:38.650Z,100.00
2022-10-04T20:37:08.583Z,100.00
2022-10-04T20:39:43.380Z,100.00
2022-10-04T20:42:30.079Z,100.00
2022-10-04T20:44:57.601Z,100.00
2022-10-04T20:47:33.696Z,100.00
2022-10-04T20:50:02.426Z,100.00
2022-10-04T20:52:32.516Z,100.00
2022-10-04T20:55:01.774Z,100.00
2022-10-04T20:57:30.530Z,100.00
2022-10-04T20:59:59.384Z,100.00
2022-10-04T21:02:28.796Z,100.00
2022-10-04T21:05:16.217Z,100.00
2022-10-04T21:07:43.678Z,100.00
2022-10-04T21:10:19.990Z,100.00
2022-10-04T21:12:49.360Z,99.95
2022-10-04T21:15:16.809Z,99.74
2022-10-04T21:18:06.107Z,99.60
2022-10-04T21:20:50.440Z,99.24
2022-10-04T21:23:29.995Z,99.44
2022-10-04T21:26:19.822Z,99.12
2022-10-04T21:28:57.279Z,98.91
2022-10-04T21:31:25.267Z,98.58
2022-10-04T21:33:52.630Z,98.31
2022-10-04T21:36:20.089Z,98.25
2022-10-04T21:38:50.156Z,98.06
2022-10-04T21:41:17.512Z,97.92
2022-10-04T21:43:44.877Z,97.74
2022-10-04T21:46:15.326Z,97.51
2022-10-04T21:48:45.469Z,97.38
2022-10-04T21:51:12.917Z,97.27
2022-10-04T21:53:40.329Z,96.96
2022-10-04T21:56:09.927Z,96.74
2022-10-04T21:58:37.207Z,96.97
2022-10-04T22:01:04.823Z,96.91
2022-10-04T22:03:32.674Z,96.97
2022-10-04T22:05:59.988Z,96.78
2022-10-04T22:08:27.602Z,96.62
2022-10-04T22:10:57.744Z,96.49
2022-10-04T22:13:26.787Z,96.33
2022-10-04T22:15:55.206Z,96.29
2022-10-04T22:18:22.467Z,96.07
2022-10-04T22:20:50.927Z,95.80
2022-10-04T22:23:23.088Z,95.59
2022-10-04T22:25:51.212Z,95.46
2022-10-04T22:28:23.054Z,95.07
2022-10-04T22:30:54.107Z,94.67
2022-10-04T22:33:37.908Z,94.41
2022-10-04T22:36:20.652Z,94.21
2022-10-04T22:39:08.191Z,93.88
2022-10-04T22:41:39.655Z,93.74
2022-10-04T22:44:25.884Z,93.55
2022-10-04T22:46:59.369Z,94.24
2022-10-04T22:49:31.298Z,94.50
2022-10-04T22:52:23.181Z,94.94
2022-10-04T22:54:55.314Z,95.00
2022-10-04T22:57:24.334Z,95.18
2022-10-04T22:59:52.991Z,95.43
2022-10-04T23:02:29.332Z,95.62
2022-10-04T23:05:15.140Z,96.05
2022-10-04T23:07:43.976Z,96.15
2022-10-04T23:10:13.162Z,96.42
2022-10-04T23:12:40.889Z,96.52
2022-10-04T23:15:14.811Z,96.81
2022-10-04T23:17:42.894Z,96.88
2022-10-04T23:20:17.303Z,97.06
2022-10-04T23:22:46.135Z,97.24
2022-10-04T23:25:18.235Z,97.43
2022-10-04T23:27:46.402Z,97.54
2022-10-04T23:30:16.935Z,97.81
2022-10-04T23:32:47.084Z,97.96
2022-10-04T23:35:30.104Z,98.13
2022-10-04T23:37:57.748Z,98.24
2022-10-04T23:40:26.226Z,98.27
2022-10-04T23:42:56.521Z,98.13
2022-10-04T23:45:25.696Z,98.31
2022-10-04T23:47:58.890Z,98.64
2022-10-04T23:50:31.894Z,98.50
2022-10-04T23:53:04.597Z,98.66
2022-10-04T23:55:44.092Z,98.64
2022-10-04T23:58:17.640Z,98.69
